createdAt,value
2023-03-26T00:01:09.068Z,19.63
2023-03-26T00:03:36.209Z,27.13
2023-03-26T00:06:03.483Z,24.52
2023-03-26T00:08:31.759Z,23.67
2023-03-26T00:11:00.019Z,31.38
2023-03-26T00:13:27.983Z,20.95
2023-03-26T00:15:55.010Z,23.85
2023-03-26T00:18:21.969Z,23.33
2023-03-26T00:20:48.850Z,29.85
2023-03-26T00:23:15.751Z,18.25
2023-03-26T00:25:43.989Z,25.33
2023-03-26T00:28:10.907Z,22.20
2023-03-26T00:30:37.990Z,17.85
2023-03-26T00:33:04.935Z,19.73
2023-03-26T00:35:31.876Z,16.67
2023-03-26T00:37:58.761Z,16.95
2023-03-26T00:40:25.647Z,20.25
2023-03-26T00:42:53.924Z,20.15
2023-03-26T00:45:20.810Z,21.17
2023-03-26T00:47:47.843Z,20.80
2023-03-26T00:50:14.850Z,18.85
2023-03-26T00:52:42.418Z,21.48
2023-03-26T00:55:09.738Z,20.92
2023-03-26T00:57:36.629Z,18.55
2023-03-26T01:00:06.464Z,19.15
2023-03-26T01:02:33.426Z,23.90
2023-03-26T01:05:00.370Z,18.67
2023-03-26T01:07:27.301Z,20.92
2023-03-26T01:09:54.564Z,20.73
2023-03-26T01:12:26.627Z,20.90
2023-03-26T01:14:54.771Z,22.52
2023-03-26T01:17:23.177Z,23.83
2023-03-26T01:19:52.453Z,23.48
2023-03-26T01:22:20.341Z,22.80
2023-03-26T01:24:48.611Z,26.17
2023-03-26T01:27:23.613Z,24.63
2023-03-26T01:29:53.032Z,18.83
2023-03-26T01:32:24.889Z,21.00
2023-03-26T01:34:58.416Z,20.65
2023-03-26T01:37:28.064Z,25.00
2023-03-26T01:39:57.118Z,20.45
2023-03-26T01:42:28.100Z,25.60
2023-03-26T01:44:56.955Z,20.20
2023-03-26T01:47:23.898Z,25.33
2023-03-26T01:49:50.893Z,19.30
2023-03-26T01:52:19.856Z,21.35
2023-03-26T01:54:46.785Z,21.10
2023-03-26T01:57:19.163Z,21.30
2023-03-26T01:59:54.971Z,15.55
2023-03-26T02:02:22.897Z,18.80
2023-03-26T02:04:51.622Z,18.67
2023-03-26T02:07:21.654Z,18.63
2023-03-26T02:09:49.753Z,15.68
2023-03-26T02:12:18.019Z,17.20
2023-03-26T02:14:45.143Z,13.57
2023-03-26T02:17:12.084Z,20.23
2023-03-26T02:19:39.124Z,26.90
2023-03-26T02:22:05.995Z,14.15
2023-03-26T02:24:32.879Z,14.30
2023-03-26T02:26:59.772Z,15.23
2023-03-26T02:29:28.027Z,15.60
2023-03-26T02:31:54.949Z,20.60
2023-03-26T02:34:21.874Z,16.20
2023-03-26T02:36:48.771Z,14.45
2023-03-26T02:39:15.757Z,14.48
2023-03-26T02:41:42.632Z,13.98
2023-03-26T02:44:09.544Z,15.15
2023-03-26T02:46:37.816Z,13.00
2023-03-26T02:49:04.732Z,14.38
2023-03-26T02:51:31.590Z,14.30
2023-03-26T02:53:58.490Z,14.25
2023-03-26T02:56:25.384Z,17.85
2023-03-26T02:58:52.314Z,14.68
2023-03-26T03:01:19.237Z,13.57
2023-03-26T03:03:47.541Z,13.48
2023-03-26T03:06:14.610Z,17.00
2023-03-26T03:08:41.535Z,13.00
2023-03-26T03:11:09.275Z,12.15
2023-03-26T03:13:36.137Z,14.98
2023-03-26T03:16:03.083Z,12.18
2023-03-26T03:18:29.954Z,13.75
2023-03-26T03:20:58.228Z,14.43
2023-03-26T03:23:25.136Z,16.70
2023-03-26T03:25:52.366Z,14.45
2023-03-26T03:28:19.590Z,18.10
2023-03-26T03:30:46.458Z,13.25
2023-03-26T03:33:13.328Z,14.65
2023-03-26T03:35:40.352Z,17.60
2023-03-26T03:38:08.631Z,11.27
2023-03-26T03:40:35.594Z,16.08
2023-03-26T03:43:02.491Z,13.70
2023-03-26T03:45:29.391Z,12.40
2023-03-26T03:47:56.454Z,13.30
2023-03-26T03:50:23.367Z,12.18
2023-03-26T03:52:50.263Z,16.58
2023-03-26T03:55:18.694Z,14.23
2023-03-26T03:57:45.588Z,16.70
2023-03-26T04:00:13.708Z,14.50
2023-03-26T04:02:40.781Z,17.65
2023-03-26T04:05:08.262Z,15.27
2023-03-26T04:07:35.130Z,14.23
2023-03-26T04:10:02.047Z,16.48
2023-03-26T04:12:30.487Z,12.30
2023-03-26T04:14:57.454Z,12.85
2023-03-26T04:17:24.540Z,16.83
2023-03-26T04:19:51.447Z,23.15
2023-03-26T04:22:18.302Z,16.92
2023-03-26T04:24:45.186Z,16.00
2023-03-26T04:27:14.732Z,16.85
2023-03-26T04:29:44.114Z,13.80
2023-03-26T04:32:12.271Z,15.68
2023-03-26T04:34:39.183Z,14.93
2023-03-26T04:37:06.097Z,16.83
2023-03-26T04:39:32.981Z,13.02
2023-03-26T04:41:59.909Z,17.20
2023-03-26T04:44:26.800Z,16.67
2023-03-26T04:46:55.089Z,17.25
2023-03-26T04:49:21.997Z,19.85
2023-03-26T04:51:48.889Z,14.32
2023-03-26T04:54:16.080Z,14.70
2023-03-26T04:56:44.587Z,16.88
2023-03-26T04:59:12.878Z,16.80
2023-03-26T05:01:39.838Z,16.15
2023-03-26T05:04:08.198Z,15.45
2023-03-26T05:06:35.148Z,11.57
2023-03-26T05:09:02.088Z,20.58
2023-03-26T05:11:28.979Z,11.60
2023-03-26T05:13:55.876Z,14.52
2023-03-26T05:16:22.852Z,19.13
2023-03-26T05:18:49.828Z,14.52
2023-03-26T05:21:18.104Z,15.20
2023-03-26T05:23:45.053Z,11.48
2023-03-26T05:26:11.989Z,11.23
2023-03-26T05:28:38.890Z,16.13
2023-03-26T05:31:06.193Z,13.88
2023-03-26T05:33:33.192Z,15.82
2023-03-26T05:36:00.374Z,17.58
2023-03-26T05:38:28.924Z,13.38
2023-03-26T05:40:58.469Z,14.82
2023-03-26T05:43:25.402Z,14.82
2023-03-26T05:45:52.349Z,14.55
2023-03-26T05:48:19.315Z,13.50
2023-03-26T05:50:48.185Z,10.93
2023-03-26T05:53:15.066Z,14.40
2023-03-26T05:55:43.388Z,17.30
2023-03-26T05:58:10.245Z,15.70
2023-03-26T06:00:37.191Z,15.55
2023-03-26T06:03:04.293Z,18.67
2023-03-26T06:05:32.316Z,17.05
2023-03-26T06:07:59.205Z,14.73
2023-03-26T06:10:26.159Z,16.35
2023-03-26T06:12:54.423Z,13.65
2023-03-26T06:15:21.343Z,20.08
2023-03-26T06:17:48.215Z,20.35
2023-03-26T06:20:15.373Z,15.25
2023-03-26T06:22:42.266Z,17.10
2023-03-26T06:25:09.431Z,19.20
2023-03-26T06:27:36.308Z,19.20
2023-03-26T06:30:05.587Z,24.95
2023-03-26T06:32:32.512Z,14.85
2023-03-26T06:34:59.396Z,17.95
2023-03-26T06:37:26.285Z,16.52
2023-03-26T06:39:53.177Z,11.00
2023-03-26T06:42:20.072Z,23.42
2023-03-26T06:44:46.999Z,13.55
2023-03-26T06:47:15.263Z,17.17
2023-03-26T06:49:43.133Z,13.85
2023-03-26T06:52:11.763Z,16.90
2023-03-26T06:54:38.698Z,18.38
2023-03-26T06:57:05.609Z,21.73
2023-03-26T06:59:32.562Z,16.67
2023-03-26T07:01:59.428Z,17.80
2023-03-26T07:04:27.786Z,14.85
2023-03-26T07:06:54.753Z,16.10
2023-03-26T07:09:21.803Z,17.98
2023-03-26T07:11:48.688Z,20.58
2023-03-26T07:14:15.579Z,17.67
2023-03-26T07:16:42.474Z,19.52
2023-03-26T07:19:09.419Z,17.77
2023-03-26T07:21:38.382Z,19.92
2023-03-26T07:24:06.024Z,12.80
2023-03-26T07:26:34.654Z,11.70
2023-03-26T07:29:05.314Z,11.18
2023-03-26T07:31:34.305Z,15.15
2023-03-26T07:34:04.179Z,14.63
2023-03-26T07:36:32.940Z,11.88
2023-03-26T07:39:08.991Z,13.68
2023-03-26T07:41:39.952Z,15.50
2023-03-26T07:44:28.277Z,16.02
2023-03-26T07:46:55.641Z,13.68
2023-03-26T07:49:23.014Z,16.38
2023-03-26T07:51:50.414Z,14.82
2023-03-26T07:54:19.242Z,14.63
2023-03-26T07:56:48.864Z,15.75
2023-03-26T07:59:20.680Z,14.25
2023-03-26T08:01:56.533Z,14.93
2023-03-26T08:04:36.349Z,14.23
2023-03-26T08:07:05.301Z,18.90
2023-03-26T08:09:34.954Z,17.38
2023-03-26T08:12:06.405Z,13.75
2023-03-26T08:14:45.161Z,12.73
2023-03-26T08:17:13.345Z,10.88
2023-03-26T08:19:54.502Z,15.20
2023-03-26T08:22:23.349Z,10.27
2023-03-26T08:25:13.816Z,16.83
2023-03-26T08:27:41.062Z,14.52
2023-03-26T08:30:10.013Z,14.32
2023-03-26T08:32:37.324Z,17.77
2023-03-26T08:35:04.800Z,15.40
2023-03-26T08:37:31.702Z,15.13
2023-03-26T08:39:59.954Z,13.10
2023-03-26T08:42:42.840Z,13.63
2023-03-26T08:45:28.925Z,13.90
2023-03-26T08:48:44.497Z,16.23
2023-03-26T08:51:33.875Z,10.25
2023-03-26T08:54:34.533Z,8.57
2023-03-26T08:57:18.610Z,15.90
2023-03-26T09:00:17.436Z,14.57
2023-03-26T09:03:17.453Z,11.73
2023-03-26T09:06:12.648Z,14.65
2023-03-26T09:09:19.097Z,9.45
2023-03-26T09:12:23.777Z,10.98
2023-03-26T09:15:28.307Z,10.02
2023-03-26T09:18:29.819Z,5.03
2023-03-26T09:21:14.167Z,9.55
2023-03-26T09:26:44.953Z,7.38
2023-03-26T09:32:24.793Z,9.70
2023-03-26T09:35:13.942Z,8.23
2023-03-26T09:37:58.020Z,8.77
2023-03-26T09:40:28.800Z,8.55
2023-03-26T09:42:56.523Z,12.65
2023-03-26T09:45:34.805Z,7.28
2023-03-26T09:48:24.282Z,7.63
2023-03-26T09:51:03.259Z,6.40
2023-03-26T09:53:59.440Z,5.63
2023-03-26T09:56:31.901Z,8.15
2023-03-26T09:59:40.194Z,11.35
2023-03-26T10:02:18.645Z,7.38
2023-03-26T10:04:57.750Z,7.85
2023-03-26T10:07:41.115Z,9.65
2023-03-26T10:10:09.081Z,7.63
2023-03-26T10:12:36.967Z,11.18
2023-03-26T10:15:11.657Z,8.88
2023-03-26T10:17:46.586Z,12.02
2023-03-26T10:20:31.909Z,12.98
2023-03-26T10:23:04.651Z,10.38
2023-03-26T10:25:40.981Z,11.38
2023-03-26T10:28:24.784Z,11.68
2023-03-26T10:31:06.816Z,12.77
2023-03-26T10:33:38.849Z,8.85
2023-03-26T10:36:32.142Z,12.38
2023-03-26T10:39:06.714Z,11.20
2023-03-26T10:41:37.163Z,9.20
2023-03-26T10:44:33.523Z,9.55
2023-03-26T10:47:35.197Z,11.25
2023-03-26T10:50:23.119Z,9.57
2023-03-26T10:52:54.231Z,7.80
2023-03-26T10:55:24.174Z,6.75
2023-03-26T10:57:52.953Z,8.95
2023-03-26T11:00:20.848Z,12.13
2023-03-26T11:02:59.357Z,9.15
2023-03-26T11:05:41.358Z,7.85
2023-03-26T11:08:10.753Z,11.50
2023-03-26T11:10:44.849Z,6.45
2023-03-26T11:15:42.881Z,8.73
2023-03-26T11:18:13.495Z,10.60
2023-03-26T11:20:41.728Z,11.30
2023-03-26T11:23:33.079Z,8.48
2023-03-26T11:26:11.904Z,8.20
2023-03-26T11:29:04.356Z,9.38
2023-03-26T11:31:45.512Z,9.00
2023-03-26T11:34:14.935Z,10.73
2023-03-26T11:36:43.655Z,7.43
2023-03-26T11:39:13.130Z,5.85
2023-03-26T11:41:39.978Z,10.85
2023-03-26T11:44:15.148Z,5.80
2023-03-26T11:46:44.352Z,11.20
2023-03-26T11:49:12.384Z,6.65
2023-03-26T11:51:39.702Z,10.80
2023-03-26T11:54:07.464Z,11.02
2023-03-26T11:56:37.490Z,8.57
2023-03-26T11:59:05.488Z,9.60
2023-03-26T12:01:44.554Z,11.13
2023-03-26T12:04:12.349Z,7.88
2023-03-26T12:06:39.296Z,4.85
2023-03-26T12:09:15.900Z,6.15
2023-03-26T12:11:44.183Z,7.10
2023-03-26T12:14:16.277Z,12.85
2023-03-26T17:22:12.459Z,5.25
2023-03-26T17:24:42.785Z,5.68
2023-03-26T17:27:18.834Z,8.77
2023-03-26T17:29:57.147Z,8.15
2023-03-26T17:32:24.381Z,8.35
2023-03-26T17:35:00.350Z,7.20
2023-03-26T17:37:40.148Z,7.00
2023-03-26T17:40:47.645Z,6.07
2023-03-26T17:43:32.473Z,8.95
2023-03-26T17:46:02.883Z,6.40
2023-03-26T17:48:32.515Z,8.05
2023-03-26T17:51:01.343Z,4.55
2023-03-26T17:53:29.934Z,5.78
2023-03-26T17:55:57.870Z,4.65
2023-03-26T17:58:27.057Z,7.97
2023-03-26T18:00:59.051Z,5.65
2023-03-26T18:03:30.914Z,8.40
2023-03-26T18:06:06.045Z,5.57
2023-03-26T18:08:46.617Z,7.93
2023-03-26T18:11:32.272Z,5.03
